createdAt,value
2018-02-11T00:02:26.188Z,51.40
2018-02-11T00:04:55.228Z,51.30
2018-02-11T00:07:24.250Z,51.90
2018-02-11T00:09:54.059Z,51.20
2018-02-11T00:12:23.828Z,51.00
2018-02-11T00:14:52.872Z,51.00
2018-02-11T00:17:21.892Z,51.00
2018-02-11T00:19:50.937Z,50.90
2018-02-11T00:22:19.942Z,50.90
2018-02-11T00:24:49.756Z,51.10
2018-02-11T00:27:19.528Z,51.10
2018-02-11T00:29:48.574Z,51.10
2018-02-11T00:32:17.592Z,51.10
2018-02-11T00:34:46.628Z,51.00
2018-02-11T00:37:15.646Z,51.00
2018-02-11T00:39:45.450Z,51.20
2018-02-11T00:42:15.222Z,51.40
2018-02-11T00:44:44.293Z,51.40
2018-02-11T00:47:13.299Z,51.40
2018-02-11T00:49:42.304Z,51.70
2018-02-11T00:52:11.340Z,51.90
2018-02-11T00:54:41.146Z,52.30
2018-02-11T00:57:10.926Z,52.30
2018-02-11T00:59:39.963Z,52.30
2018-02-11T01:02:08.968Z,52.20
2018-02-11T01:04:38.026Z,52.20
2018-02-11T01:07:07.033Z,52.30
2018-02-11T01:09:36.893Z,52.20
2018-02-11T01:12:06.667Z,52.20
2018-02-11T01:14:35.676Z,52.20
2018-02-11T01:17:04.683Z,52.10
2018-02-11T01:19:33.736Z,52.20
2018-02-11T01:22:03.504Z,52.10
2018-02-11T01:24:32.557Z,52.10
2018-02-11T01:27:01.577Z,52.10
2018-02-11T01:29:30.612Z,52.00
2018-02-11T01:31:59.625Z,52.00
2018-02-11T01:34:29.428Z,52.00
2018-02-11T01:36:59.201Z,52.00
2018-02-11T01:39:28.240Z,52.00
2018-02-11T01:41:58.016Z,51.80
2018-02-11T01:44:27.065Z,52.40
2018-02-11T01:46:56.076Z,51.80
2018-02-11T01:49:25.080Z,51.70
2018-02-11T01:51:54.125Z,51.70
2018-02-11T01:54:23.900Z,51.70
2018-02-11T01:56:52.944Z,51.60
2018-02-11T01:59:21.948Z,51.80
2018-02-11T02:01:51.008Z,51.90
2018-02-11T02:04:20.784Z,52.30
2018-02-11T02:06:49.816Z,52.00
2018-02-11T02:09:19.601Z,52.20
2018-02-11T02:11:48.646Z,52.20
2018-02-11T02:14:17.671Z,52.20
2018-02-11T02:16:46.711Z,52.00
2018-02-11T02:19:16.493Z,51.90
2018-02-11T02:21:45.539Z,51.90
2018-02-11T02:24:14.558Z,51.80
2018-02-11T02:26:43.606Z,51.80
2018-02-11T02:29:13.386Z,52.10
2018-02-11T02:31:42.422Z,52.10
2018-02-11T02:34:11.433Z,51.90
2018-02-11T02:36:40.482Z,51.90
2018-02-11T02:39:09.493Z,51.80
2018-02-11T02:41:39.288Z,51.70
2018-02-11T02:44:09.106Z,51.90
2018-02-11T02:46:38.131Z,51.90
2018-02-11T02:49:07.141Z,52.00
2018-02-11T02:51:36.186Z,52.00
2018-02-11T02:54:05.960Z,52.10
2018-02-11T02:56:35.104Z,51.90
2018-02-11T02:59:04.878Z,51.90
2018-02-11T03:01:33.921Z,51.90
2018-02-11T03:04:02.936Z,51.90
2018-02-11T03:06:31.972Z,51.90
2018-02-11T03:09:01.013Z,52.10
2018-02-11T03:11:30.046Z,52.10
2018-02-11T03:13:59.087Z,52.10
2018-02-11T03:16:28.107Z,52.30
2018-02-11T03:18:57.180Z,52.40
2018-02-11T03:21:26.202Z,52.60
2018-02-11T03:23:55.209Z,52.60
2018-02-11T03:26:24.332Z,52.50
2018-02-11T03:28:54.104Z,53.20
2018-02-11T03:31:23.113Z,52.50
2018-02-11T03:33:52.169Z,52.40
2018-02-11T03:36:21.213Z,52.50
2018-02-11T03:38:50.226Z,52.40
2018-02-11T03:41:20.053Z,52.30
2018-02-11T03:43:49.064Z,52.30
2018-02-11T03:46:18.082Z,52.10
2018-02-11T03:48:47.169Z,52.10
2018-02-11T03:51:16.179Z,51.90
2018-02-11T03:53:45.201Z,51.70
2018-02-11T03:56:15.006Z,51.60
2018-02-11T03:58:44.018Z,51.50
2018-02-11T04:01:13.829Z,51.50
2018-02-11T04:03:43.619Z,51.50
2018-02-11T04:06:12.693Z,51.50
2018-02-11T04:08:41.704Z,51.50
2018-02-11T04:11:10.720Z,51.40
2018-02-11T04:13:40.521Z,51.50
2018-02-11T04:16:10.292Z,51.40
2018-02-11T04:18:39.339Z,51.40
2018-02-11T04:21:09.127Z,51.80
2018-02-11T04:23:38.156Z,51.80
2018-02-11T04:26:07.169Z,52.00
2018-02-11T04:28:36.212Z,52.10
2018-02-11T04:31:05.989Z,53.00
2018-02-11T04:33:35.034Z,52.60
2018-02-11T04:36:04.814Z,52.90
2018-02-11T04:38:33.864Z,52.90
2018-02-11T04:41:02.879Z,53.10
2018-02-11T04:43:32.319Z,53.10
2018-02-11T04:46:02.092Z,53.10
2018-02-11T04:48:31.135Z,53.10
2018-02-11T04:51:00.149Z,53.10
2018-02-11T04:53:29.157Z,53.10
2018-02-11T04:55:58.214Z,53.10
2018-02-11T04:58:28.025Z,53.20
2018-02-11T05:00:57.808Z,53.00
2018-02-11T05:03:26.855Z,53.00
2018-02-11T05:05:55.865Z,52.90
2018-02-11T05:08:24.913Z,52.70
2018-02-11T05:10:54.695Z,52.50
2018-02-11T05:13:23.741Z,52.50
2018-02-11T05:15:52.747Z,52.50
2018-02-11T05:18:21.798Z,52.40
2018-02-11T05:20:51.578Z,52.90
2018-02-11T05:23:20.621Z,52.80
2018-02-11T05:25:49.633Z,51.90
2018-02-11T05:28:18.690Z,51.90
2018-02-11T05:30:49.245Z,51.50
2018-02-11T05:33:18.293Z,51.50
2018-02-11T05:35:47.315Z,51.70
2018-02-11T05:38:17.125Z,51.70
2018-02-11T05:40:46.902Z,51.70
2018-02-11T05:43:15.938Z,51.70
2018-02-11T05:45:45.713Z,51.20
2018-02-11T05:48:14.754Z,51.20
2018-02-11T05:50:43.751Z,50.90
2018-02-11T05:53:12.802Z,51.00
2018-02-11T05:55:41.800Z,50.80
2018-02-11T05:58:10.847Z,50.70
2018-02-11T06:00:39.849Z,50.50
2018-02-11T06:03:08.882Z,50.40
2018-02-11T06:05:37.890Z,50.10
2018-02-11T06:08:07.697Z,50.10
2018-02-11T06:10:36.691Z,50.10
2018-02-11T06:13:06.491Z,50.00
2018-02-11T06:15:35.506Z,50.00
2018-02-11T06:18:05.307Z,50.10
2018-02-11T06:20:35.088Z,50.00
2018-02-11T06:23:04.133Z,49.90
2018-02-11T06:25:33.157Z,49.60
2018-02-11T06:28:02.205Z,49.30
2018-02-11T06:30:31.978Z,49.20
2018-02-11T06:33:01.017Z,49.20
2018-02-11T06:35:30.794Z,49.00
2018-02-11T06:37:59.835Z,48.90
2018-02-11T06:40:28.836Z,49.20
2018-02-11T06:42:57.874Z,49.30
2018-02-11T06:45:26.881Z,49.30
2018-02-11T06:47:55.962Z,49.40
2018-02-11T06:50:24.963Z,49.40
2018-02-11T06:52:53.973Z,49.50
2018-02-11T06:55:23.786Z,49.70
2018-02-11T06:57:53.597Z,50.00
2018-02-11T07:00:23.374Z,49.90
2018-02-11T07:02:52.440Z,49.80
2018-02-11T07:05:21.451Z,49.50
2018-02-11T07:07:50.452Z,49.80
2018-02-11T07:10:19.502Z,49.90
2018-02-11T07:12:48.505Z,49.60
2018-02-11T07:15:17.556Z,49.70
2018-02-11T07:17:46.590Z,49.60
2018-02-11T07:20:16.374Z,48.90
2018-02-11T07:22:46.141Z,48.40
2018-02-11T07:25:15.221Z,48.40
2018-02-11T07:27:44.220Z,49.00
2018-02-11T07:30:13.276Z,48.00
2018-02-11T07:32:43.050Z,47.50
2018-02-11T07:35:12.078Z,47.50
2018-02-11T07:37:41.845Z,46.90
2018-02-11T07:40:10.872Z,46.90
2018-02-11T07:42:40.646Z,46.60
2018-02-11T07:45:09.722Z,46.60
2018-02-11T07:47:38.757Z,46.70
2018-02-11T07:50:07.749Z,46.70
2018-02-11T07:52:36.878Z,46.30
2018-02-11T07:55:06.696Z,46.70
2018-02-11T07:57:35.696Z,46.70
2018-02-11T08:00:04.741Z,46.60
2018-02-11T08:02:33.750Z,46.60
2018-02-11T08:05:02.781Z,46.30
2018-02-11T08:07:31.788Z,45.90
2018-02-11T08:10:00.822Z,46.10
2018-02-11T08:12:29.817Z,46.20
2018-02-11T08:14:58.858Z,46.00
2018-02-11T08:17:27.872Z,45.90
2018-02-11T08:19:56.912Z,45.70
2018-02-11T08:22:26.686Z,45.30
2018-02-11T08:24:55.731Z,45.30
2018-02-11T08:27:24.733Z,44.20
2018-02-11T08:29:53.773Z,44.10
2018-02-11T08:32:22.782Z,43.70
2018-02-11T08:34:52.076Z,44.10
2018-02-11T08:37:21.090Z,44.20
2018-02-11T08:39:50.858Z,44.10
2018-02-11T08:42:19.927Z,44.10
2018-02-11T08:44:48.929Z,44.60
2018-02-11T08:47:17.929Z,44.00
2018-02-11T08:49:46.987Z,44.20
2018-02-11T08:52:16.756Z,45.30
2018-02-11T08:54:45.761Z,45.20
2018-02-11T08:57:14.797Z,46.10
2018-02-11T08:59:43.805Z,46.10
2018-02-11T09:02:12.839Z,46.40
2018-02-11T09:04:41.847Z,46.20
2018-02-11T09:07:10.885Z,46.30
2018-02-11T09:09:39.885Z,46.70
2018-02-11T09:12:08.889Z,46.60
2018-02-11T09:14:37.930Z,46.10
2018-02-11T09:17:07.707Z,45.50
2018-02-11T09:19:36.703Z,45.50
2018-02-11T09:22:07.037Z,45.10
2018-02-11T09:24:36.039Z,44.50
2018-02-11T09:27:05.036Z,44.60
2018-02-11T09:29:34.842Z,44.40
2018-02-11T09:32:04.011Z,44.40
2018-02-11T09:34:33.013Z,45.20
2018-02-11T09:37:02.022Z,45.70
2018-02-11T09:39:31.049Z,46.10
2018-02-11T09:42:00.172Z,46.50
2018-02-11T09:44:29.173Z,46.30
2018-02-11T09:46:58.172Z,46.60
2018-02-11T09:49:27.230Z,46.10
2018-02-11T09:51:56.242Z,46.30
2018-02-11T09:54:25.245Z,45.80
2018-02-11T09:56:54.282Z,46.20
2018-02-11T09:59:24.082Z,47.70
2018-02-11T10:01:53.117Z,47.70
2018-02-11T10:04:22.150Z,48.60
2018-02-11T10:06:51.153Z,48.10
2018-02-11T10:09:20.307Z,48.50
2018-02-11T10:11:49.304Z,48.30
2018-02-11T10:14:18.296Z,48.50
2018-02-11T10:16:47.331Z,48.40
2018-02-11T10:19:16.342Z,48.90
2018-02-11T10:21:46.143Z,50.90
2018-02-11T10:24:15.912Z,51.70
2018-02-11T10:26:44.926Z,51.70
2018-02-11T10:29:13.968Z,52.00
2018-02-11T10:31:43.014Z,52.40
2018-02-11T10:34:12.028Z,52.30
2018-02-11T10:36:41.096Z,52.70
2018-02-11T10:39:10.106Z,52.90
2018-02-11T10:41:39.122Z,53.90
2018-02-11T10:44:08.974Z,53.40
2018-02-11T10:46:37.989Z,53.40
2018-02-11T10:49:07.007Z,53.10
2018-02-11T10:51:36.045Z,53.00
2018-02-11T10:54:05.088Z,52.70
2018-02-11T10:56:34.088Z,52.30
2018-02-11T10:59:03.896Z,51.00
2018-02-11T11:01:32.913Z,51.00
2018-02-11T11:04:01.958Z,50.00
2018-02-11T11:06:30.977Z,50.70
2018-02-11T11:09:00.026Z,49.20
2018-02-11T11:11:29.043Z,45.80
2018-02-11T11:13:58.124Z,43.00
2018-02-11T11:16:27.141Z,44.10
2018-02-11T11:18:56.159Z,45.10
2018-02-11T11:21:25.974Z,45.20
2018-02-11T11:23:55.790Z,45.50
2018-02-11T11:26:25.683Z,45.70
2018-02-11T11:28:54.690Z,45.60
2018-02-11T11:31:24.524Z,45.20
2018-02-11T11:33:53.555Z,45.20
2018-02-11T11:36:22.558Z,45.60
2018-02-11T11:38:51.599Z,45.70
2018-02-11T11:41:20.602Z,45.00
2018-02-11T11:43:49.627Z,45.50
2018-02-11T11:46:18.646Z,45.10
2018-02-11T11:48:47.668Z,44.50
2018-02-11T11:51:16.665Z,44.00
2018-02-11T11:53:45.705Z,44.30
2018-02-11T11:56:14.708Z,44.70
2018-02-11T11:58:43.740Z,44.40
2018-02-11T12:01:12.750Z,44.80
2018-02-11T12:03:41.781Z,45.10
2018-02-11T12:06:10.801Z,45.50
2018-02-11T12:08:40.625Z,46.30
2018-02-11T12:11:10.393Z,46.30
2018-02-11T12:13:39.438Z,46.30
2018-02-11T12:16:08.441Z,46.20
2018-02-11T12:18:37.481Z,45.70
2018-02-11T12:21:06.492Z,45.20
2018-02-11T12:23:35.535Z,46.20
2018-02-11T12:26:04.535Z,46.70
2018-02-11T12:28:33.574Z,46.90
2018-02-11T12:31:02.582Z,47.50
2018-02-11T12:33:31.634Z,49.60
2018-02-11T12:36:00.638Z,49.30
2018-02-11T12:38:29.691Z,49.80
2018-02-11T12:40:58.691Z,50.40
2018-02-11T12:43:27.739Z,50.80
2018-02-11T12:45:57.512Z,51.70
2018-02-11T12:48:26.552Z,51.70
2018-02-11T12:50:56.329Z,51.70
2018-02-11T12:53:25.367Z,51.50
2018-02-11T12:55:54.409Z,51.80
2018-02-11T12:58:23.421Z,52.30
2018-02-11T13:00:52.457Z,52.10
2018-02-11T13:03:21.470Z,51.90
2018-02-11T13:05:50.546Z,52.30
2018-02-11T13:08:19.549Z,51.80
2018-02-11T13:10:48.553Z,52.00
2018-02-11T13:13:17.621Z,52.70
2018-02-11T13:15:46.625Z,53.20
2018-02-11T13:18:15.642Z,53.20
2018-02-11T13:20:44.719Z,53.50
2018-02-11T13:23:13.759Z,53.90
2018-02-11T13:25:42.736Z,54.10
2018-02-11T13:28:11.805Z,54.00
2018-02-11T13:30:40.809Z,54.50
2018-02-11T13:33:09.821Z,54.20
2018-02-11T13:35:38.854Z,54.50
2018-02-11T13:38:07.914Z,54.00
2018-02-11T13:40:36.950Z,54.40
2018-02-11T13:43:05.958Z,54.70
2018-02-11T13:45:34.969Z,54.70
2018-02-11T13:48:04.057Z,54.80
2018-02-11T13:50:33.057Z,55.00
2018-02-11T13:53:02.074Z,55.30
2018-02-11T13:55:31.118Z,54.90
2018-02-11T13:58:00.121Z,55.00
2018-02-11T14:00:29.157Z,55.50
2018-02-11T14:02:58.170Z,55.60
2018-02-11T14:05:28.349Z,55.20
2018-02-11T14:07:57.350Z,55.20
2018-02-11T14:10:26.353Z,54.90
2018-02-11T14:12:55.424Z,55.10
2018-02-11T14:15:24.428Z,54.90
2018-02-11T14:17:53.429Z,54.60
2018-02-11T14:20:22.773Z,54.90
2018-02-11T14:22:51.767Z,54.90
2018-02-11T14:25:20.782Z,54.50
2018-02-11T14:27:49.846Z,55.40
2018-02-11T14:30:19.612Z,54.90
2018-02-11T14:32:48.625Z,54.90
2018-02-11T14:35:17.665Z,54.90
2018-02-11T14:37:46.714Z,54.90
2018-02-11T14:40:15.722Z,55.10
2018-02-11T14:42:45.537Z,55.40
2018-02-11T14:45:15.304Z,55.20
2018-02-11T14:47:44.317Z,55.20
2018-02-11T14:50:13.382Z,55.30
2018-02-11T14:52:42.394Z,55.60
2018-02-11T14:55:11.390Z,55.80
2018-02-11T14:57:40.425Z,55.80
2018-02-11T15:00:10.221Z,55.60
2018-02-11T15:02:39.997Z,55.60
2018-02-11T15:05:09.057Z,55.60
2018-02-11T15:07:38.060Z,55.50
2018-02-11T15:10:07.060Z,55.20
2018-02-11T15:12:36.128Z,55.20
2018-02-11T15:15:05.139Z,54.90
2018-02-11T15:17:34.150Z,54.80
2018-02-11T15:20:03.216Z,54.80
2018-02-11T15:22:32.212Z,54.70
2018-02-11T15:25:01.237Z,54.70
2018-02-11T15:27:30.325Z,55.00
2018-02-11T15:29:59.338Z,55.20
2018-02-11T15:32:28.345Z,54.80
2018-02-11T15:34:57.389Z,54.90
2018-02-11T15:37:26.437Z,55.40
2018-02-11T15:39:56.205Z,55.40
2018-02-11T15:42:25.312Z,55.30
2018-02-11T15:44:54.325Z,55.60
2018-02-11T15:47:23.326Z,55.80
2018-02-11T15:49:52.372Z,56.00
2018-02-11T15:52:21.384Z,56.10
2018-02-11T15:54:50.386Z,56.60
2018-02-11T15:57:19.424Z,56.70
2018-02-11T15:59:48.435Z,57.10
2018-02-11T16:02:17.474Z,56.90
2018-02-11T16:04:46.485Z,56.90
2018-02-11T16:07:16.284Z,57.30
2018-02-11T16:09:45.272Z,57.30
2018-02-11T16:12:14.318Z,57.40
2018-02-11T16:14:43.417Z,57.40
2018-02-11T16:17:12.379Z,57.30
2018-02-11T16:19:41.419Z,58.00
2018-02-11T16:22:10.431Z,57.00
2018-02-11T16:24:39.462Z,57.10
2018-02-11T16:27:09.233Z,56.90
2018-02-11T16:29:38.289Z,56.90
2018-02-11T16:32:07.290Z,57.00
2018-02-11T16:34:36.325Z,57.00
2018-02-11T16:37:05.325Z,57.70
2018-02-11T16:39:34.362Z,57.10
2018-02-11T16:42:03.361Z,57.10
2018-02-11T16:44:32.423Z,57.00
2018-02-11T16:47:02.203Z,57.10
2018-02-11T16:49:31.195Z,57.00
2018-02-11T16:52:00.233Z,57.30
2018-02-11T16:54:29.236Z,57.40
2018-02-11T16:56:58.276Z,57.50
2018-02-11T16:59:27.286Z,57.60
2018-02-11T17:01:56.331Z,57.60
2018-02-11T17:04:25.341Z,57.50
2018-02-11T17:06:54.397Z,57.50
2018-02-11T17:09:23.410Z,57.40
2018-02-11T17:11:52.459Z,57.40
2018-02-11T17:14:22.233Z,56.80
2018-02-11T17:16:51.265Z,56.80
2018-02-11T17:19:20.271Z,56.70
2018-02-11T17:21:50.078Z,56.70
2018-02-11T17:24:19.842Z,56.70
2018-02-11T17:26:48.893Z,56.70
2018-02-11T17:29:17.906Z,56.60
2018-02-11T17:31:46.910Z,56.50
2018-02-11T17:34:15.953Z,56.30
2018-02-11T17:36:45.030Z,56.40
2018-02-11T17:39:14.034Z,57.00
2018-02-11T17:41:43.033Z,56.40
2018-02-11T17:44:12.093Z,56.40
2018-02-11T17:46:41.103Z,56.40
2018-02-11T17:49:10.102Z,57.00
2018-02-11T17:51:39.134Z,57.00
2018-02-11T17:54:08.210Z,57.40
2018-02-11T17:56:37.969Z,57.00
2018-02-11T17:59:07.004Z,56.90
2018-02-11T18:01:36.012Z,57.20
2018-02-11T18:04:05.819Z,57.70
2018-02-11T18:06:35.585Z,57.60
2018-02-11T18:09:04.610Z,57.50
2018-02-11T18:11:33.652Z,57.60
2018-02-11T18:14:02.653Z,57.80
2018-02-11T18:16:31.694Z,57.70
2018-02-11T18:19:01.468Z,57.40
2018-02-11T18:21:30.909Z,57.40
2018-02-11T18:23:59.919Z,57.20
2018-02-11T18:26:29.695Z,56.90
2018-02-11T18:28:58.744Z,56.90
2018-02-11T18:31:27.749Z,56.70
2018-02-11T18:33:56.783Z,56.40
2018-02-11T18:36:25.812Z,56.20
2018-02-11T18:38:54.821Z,56.20
2018-02-11T18:41:23.968Z,56.10
2018-02-11T18:43:52.970Z,56.10
2018-02-11T18:46:21.975Z,56.00
2018-02-11T18:48:51.028Z,56.10
2018-02-11T18:51:20.031Z,56.00
2018-02-11T18:53:49.025Z,55.90
2018-02-11T18:56:18.055Z,55.50
2018-02-11T18:58:47.066Z,55.40
2018-02-11T19:01:16.101Z,55.40
2018-02-11T19:03:45.092Z,55.50
2018-02-11T19:06:14.328Z,55.50
2018-02-11T19:08:44.088Z,55.40
2018-02-11T19:11:13.098Z,55.40
2018-02-11T19:13:42.134Z,55.20
2018-02-11T19:16:11.142Z,55.20
2018-02-11T19:18:40.182Z,55.10
2018-02-11T19:21:09.186Z,55.00
2018-02-11T19:23:38.236Z,55.00
2018-02-11T19:26:07.227Z,55.10
2018-02-11T19:28:36.224Z,55.30
2018-02-11T19:31:05.280Z,55.40
2018-02-11T19:33:35.061Z,55.50
2018-02-11T19:36:04.109Z,55.50
2018-02-11T19:38:33.994Z,55.50
2018-02-11T19:41:03.775Z,55.30
2018-02-11T19:43:32.826Z,55.30
2018-02-11T19:46:01.907Z,55.30
2018-02-11T19:48:30.903Z,55.30
2018-02-11T19:50:59.914Z,55.20
2018-02-11T19:53:28.989Z,55.10
2018-02-11T19:55:58.078Z,55.20
2018-02-11T19:58:27.048Z,55.00
2018-02-11T20:00:56.087Z,55.00
2018-02-11T20:03:25.141Z,55.10
2018-02-11T20:05:54.145Z,55.20
2018-02-11T20:08:23.900Z,55.40
2018-02-11T20:10:52.953Z,55.30
2018-02-11T20:13:22.720Z,55.20
2018-02-11T20:15:51.725Z,55.20
2018-02-11T20:18:20.778Z,55.30
2018-02-11T20:20:49.778Z,55.30
2018-02-11T20:23:18.778Z,55.60
2018-02-11T20:25:47.841Z,56.00
2018-02-11T20:28:16.855Z,56.20
2018-02-11T20:30:45.882Z,56.20
2018-02-11T20:33:14.893Z,56.20
2018-02-11T20:35:43.929Z,56.50
2018-02-11T20:38:12.932Z,56.50
2018-02-11T20:40:41.992Z,56.50
2018-02-11T20:43:11.012Z,56.70
2018-02-11T20:45:40.010Z,56.70
2018-02-11T20:48:09.136Z,56.30
2018-02-11T20:50:38.132Z,56.30
2018-02-11T20:53:07.142Z,56.30
2018-02-11T20:55:36.184Z,55.90
2018-02-11T20:58:05.190Z,55.40
2018-02-11T21:00:34.262Z,55.70
2018-02-11T21:03:03.265Z,55.70
2018-02-11T21:05:32.260Z,55.70
2018-02-11T21:08:01.315Z,56.00
2018-02-11T21:10:31.086Z,56.40
2018-02-11T21:13:00.172Z,56.40
2018-02-11T21:15:29.138Z,56.60
2018-02-11T21:17:58.245Z,56.70
2018-02-11T21:20:27.259Z,56.50
2018-02-11T21:22:56.261Z,56.70
2018-02-11T21:25:25.307Z,56.90
2018-02-11T21:27:54.301Z,56.90
2018-02-11T21:30:23.067Z,56.60
2018-02-11T21:32:51.833Z,56.70
2018-02-11T21:35:21.329Z,56.40
2018-02-11T21:37:50.869Z,56.00
2018-02-11T21:40:19.605Z,55.90
2018-02-11T21:42:48.604Z,55.80
2018-02-11T21:45:17.649Z,55.60
2018-02-11T21:47:47.408Z,55.50
2018-02-11T21:50:16.448Z,55.50
2018-02-11T21:52:46.213Z,55.70
2018-02-11T21:55:15.239Z,55.60
2018-02-11T21:57:45.014Z,56.40
2018-02-11T22:00:14.062Z,55.70
2018-02-11T22:02:43.081Z,55.40
2018-02-11T22:05:12.118Z,55.30
2018-02-11T22:07:41.118Z,55.30
2018-02-11T22:10:10.148Z,55.40
2018-02-11T22:12:39.197Z,55.50
2018-02-11T22:15:08.192Z,55.70
2018-02-11T22:17:37.245Z,55.80
2018-02-11T22:20:06.251Z,55.70
2018-02-11T22:22:35.257Z,55.80
2018-02-11T22:25:04.294Z,55.80
2018-02-11T22:27:34.065Z,55.70
2018-02-11T22:30:03.096Z,55.70
2018-02-11T22:32:32.117Z,55.80
2018-02-11T22:35:01.162Z,55.80
2018-02-11T22:37:30.939Z,55.30
2018-02-11T22:39:59.968Z,55.30
2018-02-11T22:42:29.753Z,54.70
2018-02-11T22:44:58.797Z,54.70
2018-02-11T22:47:27.883Z,54.50
2018-02-11T22:49:57.785Z,54.70
2018-02-11T22:52:27.557Z,55.00
2018-02-11T22:54:56.565Z,54.60
2018-02-11T22:57:25.595Z,54.60
2018-02-11T22:59:55.412Z,54.30
2018-02-11T23:02:25.168Z,53.80
2018-02-11T23:04:54.213Z,53.80
2018-02-11T23:07:23.978Z,53.50
2018-02-11T23:09:53.034Z,53.50
2018-02-11T23:12:22.054Z,53.50
2018-02-11T23:14:51.061Z,53.60
2018-02-11T23:17:20.120Z,53.70
2018-02-11T23:19:51.955Z,53.70
2018-02-11T23:22:21.769Z,53.90
2018-02-11T23:24:51.532Z,53.80
2018-02-11T23:27:20.542Z,53.80
2018-02-11T23:29:49.588Z,53.70
2018-02-11T23:32:18.620Z,53.90
2018-02-11T23:34:47.631Z,53.90
2018-02-11T23:37:16.677Z,54.10
2018-02-11T23:39:45.676Z,54.30
2018-02-11T23:42:14.748Z,54.60
2018-02-11T23:44:43.757Z,54.90
2018-02-11T23:47:12.760Z,55.10
2018-02-11T23:49:41.800Z,55.30
2018-02-11T23:52:11.577Z,55.70
2018-02-11T23:54:40.587Z,55.70
2018-02-11T23:57:09.624Z,55.90
2018-02-11T23:59:38.652Z,56.50
